createdAt,value
2022-08-30T00:01:07.590Z,92.40
2022-08-30T00:03:45.678Z,92.50
2022-08-30T00:06:15.107Z,92.60
2022-08-30T00:08:43.066Z,92.50
2022-08-30T00:11:13.283Z,92.80
2022-08-30T00:13:42.377Z,92.90
2022-08-30T00:16:10.142Z,92.80
2022-08-30T00:18:37.053Z,92.80
2022-08-30T00:21:05.725Z,92.90
2022-08-30T00:23:33.129Z,93.00
2022-08-30T00:26:00.480Z,93.10
2022-08-30T00:28:27.471Z,93.10
2022-08-30T00:30:54.924Z,93.30
2022-08-30T00:33:22.920Z,93.10
2022-08-30T00:35:50.417Z,93.40
2022-08-30T00:38:17.339Z,93.30
2022-08-30T00:40:45.275Z,93.50
2022-08-30T00:43:16.532Z,93.60
2022-08-30T00:45:47.161Z,93.70
2022-08-30T00:48:14.101Z,93.60
2022-08-30T00:50:46.677Z,93.70
2022-08-30T00:53:20.527Z,93.50
2022-08-30T00:55:49.024Z,93.20
2022-08-30T00:58:21.802Z,93.00
2022-08-30T01:00:55.135Z,93.10
2022-08-30T01:03:22.677Z,93.10
2022-08-30T01:05:51.593Z,93.10
2022-08-30T01:08:22.346Z,93.00
2022-08-30T01:10:51.509Z,93.10
2022-08-30T01:13:19.938Z,93.10
2022-08-30T01:15:50.666Z,93.10
2022-08-30T01:18:18.907Z,93.00
2022-08-30T01:21:22.700Z,93.00
2022-08-30T01:23:53.762Z,93.00
2022-08-30T01:26:22.017Z,93.00
2022-08-30T01:28:55.806Z,93.30
2022-08-30T01:31:23.464Z,93.20
2022-08-30T01:33:51.096Z,93.10
2022-08-30T01:36:20.408Z,92.90
2022-08-30T01:38:57.132Z,92.80
2022-08-30T01:41:25.725Z,93.00
2022-08-30T01:43:55.112Z,93.00
2022-08-30T01:46:24.398Z,93.00
2022-08-30T01:48:54.276Z,93.10
2022-08-30T01:51:24.094Z,93.00
2022-08-30T01:53:51.426Z,93.10
2022-08-30T01:56:19.192Z,93.10
2022-08-30T01:58:46.415Z,93.20
2022-08-30T02:01:15.353Z,93.30
2022-08-30T02:03:44.804Z,93.40
2022-08-30T02:06:13.543Z,93.40
2022-08-30T02:08:41.590Z,93.50
2022-08-30T02:11:09.537Z,93.50
2022-08-30T02:13:37.788Z,93.60
2022-08-30T02:16:06.146Z,93.60
2022-08-30T02:18:34.711Z,93.70
2022-08-30T02:21:01.780Z,93.70
2022-08-30T02:23:28.816Z,93.70
2022-08-30T02:25:56.086Z,93.80
2022-08-30T02:28:23.103Z,93.80
2022-08-30T02:30:52.671Z,93.80
2022-08-30T02:33:20.679Z,93.90
2022-08-30T02:35:47.581Z,93.90
2022-08-30T02:38:14.616Z,94.00
2022-08-30T02:40:42.047Z,94.00
2022-08-30T02:43:09.077Z,94.10
2022-08-30T02:45:36.014Z,94.10
2022-08-30T02:48:03.653Z,94.10
2022-08-30T02:50:31.213Z,94.20
2022-08-30T02:52:58.079Z,94.10
2022-08-30T02:55:25.362Z,94.20
2022-08-30T02:57:52.249Z,94.10
2022-08-30T03:00:20.800Z,94.10
2022-08-30T03:02:48.104Z,94.20
2022-08-30T03:05:16.742Z,94.20
2022-08-30T03:07:45.774Z,94.20
2022-08-30T03:10:14.102Z,94.30
2022-08-30T03:12:41.878Z,94.20
2022-08-30T03:15:13.273Z,94.20
2022-08-30T03:17:40.956Z,94.30
2022-08-30T03:20:09.729Z,94.30
2022-08-30T03:22:36.788Z,94.30
2022-08-30T03:25:04.638Z,94.30
2022-08-30T03:27:32.357Z,94.20
2022-08-30T03:29:59.210Z,94.20
2022-08-30T03:32:26.208Z,94.20
2022-08-30T03:34:53.223Z,94.20
2022-08-30T03:37:27.262Z,94.10
2022-08-30T03:39:57.582Z,94.10
2022-08-30T03:42:24.903Z,93.90
2022-08-30T03:44:52.116Z,93.90
2022-08-30T03:47:19.165Z,93.90
2022-08-30T03:49:46.689Z,93.90
2022-08-30T03:52:13.659Z,93.70
2022-08-30T03:54:40.536Z,93.70
2022-08-30T03:57:07.464Z,93.60
2022-08-30T03:59:34.327Z,93.50
2022-08-30T04:02:01.419Z,93.50
2022-08-30T04:04:28.640Z,93.40
2022-08-30T04:06:55.516Z,93.30
2022-08-30T04:09:22.426Z,93.20
2022-08-30T04:11:49.421Z,93.20
2022-08-30T04:14:16.518Z,93.10
2022-08-30T04:16:43.674Z,93.10
2022-08-30T04:19:10.807Z,93.10
2022-08-30T04:21:43.052Z,93.20
2022-08-30T04:24:11.178Z,93.20
2022-08-30T04:26:38.110Z,93.20
2022-08-30T04:29:05.279Z,93.20
2022-08-30T04:31:32.543Z,93.40
2022-08-30T04:33:59.675Z,93.40
2022-08-30T04:36:26.692Z,93.60
2022-08-30T04:38:53.529Z,93.70
2022-08-30T04:41:24.384Z,93.80
2022-08-30T04:43:51.377Z,93.90
2022-08-30T04:46:19.457Z,94.00
2022-08-30T04:48:47.138Z,94.10
2022-08-30T04:51:17.188Z,94.20
2022-08-30T04:53:45.159Z,94.30
2022-08-30T04:56:19.573Z,94.50
2022-08-30T04:58:48.675Z,94.60
2022-08-30T05:01:23.767Z,94.60
2022-08-30T05:03:52.230Z,94.60
2022-08-30T05:06:20.021Z,94.80
2022-08-30T05:08:47.641Z,95.00
2022-08-30T05:11:16.566Z,95.00
2022-08-30T05:13:44.320Z,95.30
2022-08-30T05:16:13.411Z,95.90
2022-08-30T05:18:40.481Z,96.40
2022-08-30T05:21:11.165Z,96.60
2022-08-30T05:23:39.574Z,96.70
2022-08-30T05:26:08.686Z,96.30
2022-08-30T05:28:36.652Z,95.60
2022-08-30T05:31:14.033Z,95.30
2022-08-30T05:33:41.922Z,94.80
2022-08-30T05:36:09.902Z,94.20
2022-08-30T05:38:36.813Z,93.90
2022-08-30T05:41:08.349Z,93.00
2022-08-30T05:43:38.580Z,92.70
2022-08-30T05:46:12.560Z,92.50
2022-08-30T05:48:40.525Z,91.90
2022-08-30T05:51:17.570Z,91.20
2022-08-30T05:53:45.798Z,90.50
2022-08-30T05:56:14.595Z,89.50
2022-08-30T05:58:42.329Z,88.70
2022-08-30T06:01:19.670Z,87.40
2022-08-30T06:03:46.497Z,85.70
2022-08-30T06:06:13.407Z,83.90
2022-08-30T06:08:40.312Z,83.60
2022-08-30T06:11:07.101Z,84.10
2022-08-30T06:13:34.517Z,84.80
2022-08-30T06:16:01.366Z,86.00
2022-08-30T06:18:29.074Z,86.00
2022-08-30T06:20:55.875Z,86.80
2022-08-30T06:23:22.998Z,87.20
2022-08-30T06:25:49.958Z,87.90
2022-08-30T06:28:17.307Z,89.10
2022-08-30T06:30:44.260Z,88.70
2022-08-30T06:33:11.770Z,90.30
2022-08-30T06:35:56.795Z,90.10
2022-08-30T06:38:26.833Z,88.20
2022-08-30T06:40:53.623Z,85.80
2022-08-30T06:43:20.889Z,83.30
2022-08-30T06:45:48.093Z,82.10
2022-08-30T06:48:15.014Z,79.30
2022-08-30T06:50:42.467Z,78.30
2022-08-30T06:53:09.975Z,77.20
2022-08-30T06:55:37.383Z,73.10
2022-08-30T06:58:04.918Z,73.00
2022-08-30T07:00:32.018Z,71.30
2022-08-30T07:02:59.274Z,71.30
2022-08-30T07:05:26.206Z,70.20
2022-08-30T07:07:55.838Z,68.40
2022-08-30T07:10:22.781Z,68.40
2022-08-30T07:12:52.380Z,67.70
2022-08-30T07:15:23.177Z,67.10
2022-08-30T07:18:08.718Z,66.90
2022-08-30T07:20:40.568Z,65.90
2022-08-30T07:23:08.884Z,64.20
2022-08-30T07:25:40.774Z,64.00
2022-08-30T07:28:08.831Z,63.70
2022-08-30T07:30:36.356Z,64.00
2022-08-30T07:33:03.791Z,63.90
2022-08-30T07:35:31.585Z,63.60
2022-08-30T07:37:59.065Z,64.20
2022-08-30T07:40:26.843Z,63.60
2022-08-30T07:42:53.950Z,62.10
2022-08-30T07:45:21.285Z,61.60
2022-08-30T07:47:48.164Z,61.10
2022-08-30T07:50:15.050Z,61.00
2022-08-30T07:52:41.988Z,60.20
2022-08-30T07:55:10.075Z,59.40
2022-08-30T07:57:37.210Z,58.40
2022-08-30T08:00:06.414Z,58.20
2022-08-30T08:02:40.798Z,59.20
2022-08-30T08:05:10.300Z,58.00
2022-08-30T08:07:39.851Z,55.90
2022-08-30T08:10:07.214Z,55.90
2022-08-30T08:12:34.894Z,55.20
2022-08-30T08:15:04.212Z,55.00
2022-08-30T08:17:35.190Z,54.60
2022-08-30T08:20:02.686Z,54.60
2022-08-30T08:22:29.504Z,53.60
2022-08-30T08:24:56.604Z,52.30
2022-08-30T08:27:24.744Z,53.60
2022-08-30T08:29:51.680Z,53.30
2022-08-30T08:32:18.540Z,51.70
2022-08-30T08:34:45.352Z,51.20
2022-08-30T08:37:12.206Z,50.70
2022-08-30T08:39:39.071Z,49.40
2022-08-30T08:42:11.641Z,49.70
2022-08-30T08:45:00.247Z,49.60
2022-08-30T08:47:40.034Z,48.40
2022-08-30T08:50:20.491Z,48.20
2022-08-30T08:53:36.180Z,48.30
2022-08-30T08:56:12.531Z,47.80
2022-08-30T08:58:52.299Z,47.80
2022-08-30T09:01:22.694Z,47.00
2022-08-30T09:03:50.428Z,46.30
2022-08-30T09:06:49.179Z,46.10
2022-08-30T09:09:20.570Z,46.00
2022-08-30T09:11:48.213Z,45.30
2022-08-30T09:14:20.710Z,45.30
2022-08-30T09:16:57.116Z,44.20
2022-08-30T09:19:40.604Z,43.80
2022-08-30T09:22:46.904Z,42.70
2022-08-30T09:25:22.368Z,44.00
2022-08-30T09:27:52.065Z,43.00
2022-08-30T09:30:21.371Z,43.70
2022-08-30T09:33:07.702Z,43.00
2022-08-30T09:35:37.521Z,44.00
2022-08-30T09:38:10.907Z,43.30
2022-08-30T09:40:43.138Z,43.60
2022-08-30T09:43:32.879Z,43.00
2022-08-30T09:46:02.848Z,43.90
2022-08-30T09:48:34.292Z,42.10
2022-08-30T09:51:11.157Z,41.90
2022-08-30T09:54:17.495Z,41.20
2022-08-30T09:56:52.080Z,40.70
2022-08-30T09:59:49.005Z,40.90
2022-08-30T10:02:55.230Z,41.70
2022-08-30T10:05:35.309Z,41.30
2022-08-30T10:08:42.422Z,40.30
2022-08-30T10:11:22.093Z,40.20
2022-08-30T10:14:25.078Z,39.50
2022-08-30T10:17:06.091Z,39.60
2022-08-30T10:20:03.200Z,39.00
2022-08-30T10:22:58.648Z,38.60
2022-08-30T10:25:40.021Z,38.70
2022-08-30T10:28:35.186Z,38.60
2022-08-30T10:31:14.723Z,38.00
2022-08-30T10:33:50.967Z,38.10
2022-08-30T10:36:31.151Z,37.40
2022-08-30T10:38:59.408Z,37.40
2022-08-30T10:41:36.348Z,37.40
2022-08-30T10:44:06.628Z,37.00
2022-08-30T10:46:47.956Z,36.40
2022-08-30T10:49:19.705Z,36.40
2022-08-30T10:52:10.041Z,36.40
2022-08-30T10:55:23.674Z,36.10
2022-08-30T10:57:51.827Z,36.30
2022-08-30T11:00:31.754Z,36.30
2022-08-30T11:03:26.759Z,36.40
2022-08-30T11:06:02.278Z,36.60
2022-08-30T11:08:53.648Z,36.50
2022-08-30T11:11:45.915Z,35.40
2022-08-30T11:14:17.558Z,35.20
2022-08-30T11:16:48.469Z,35.10
2022-08-30T11:19:15.312Z,34.30
2022-08-30T11:21:44.195Z,33.70
2022-08-30T11:24:23.805Z,34.60
2022-08-30T11:26:54.711Z,34.30
2022-08-30T11:29:43.909Z,34.40
2022-08-30T11:32:14.443Z,34.30
2022-08-30T11:34:47.433Z,33.90
2022-08-30T11:37:41.200Z,33.80
2022-08-30T11:40:24.590Z,34.20
2022-08-30T11:42:55.338Z,33.70
2022-08-30T11:45:26.756Z,33.80
2022-08-30T11:47:59.886Z,34.20
2022-08-30T11:50:30.422Z,34.20
2022-08-30T11:53:16.126Z,33.80
2022-08-30T11:56:11.968Z,33.00
2022-08-30T11:59:02.678Z,33.70
2022-08-30T12:01:49.884Z,33.90
2022-08-30T12:04:19.549Z,34.30
2022-08-30T12:06:52.401Z,33.80
2022-08-30T12:09:25.039Z,33.90
2022-08-30T12:12:28.800Z,33.40
2022-08-30T12:14:57.607Z,33.00
2022-08-30T12:17:44.789Z,32.60
2022-08-30T12:20:35.023Z,33.30
2022-08-30T12:23:21.277Z,33.70
2022-08-30T12:26:08.913Z,32.80
2022-08-30T12:28:38.567Z,33.40
2022-08-30T12:31:22.075Z,32.80
2022-08-30T12:34:01.484Z,32.30
2022-08-30T12:36:40.073Z,32.50
2022-08-30T12:39:21.064Z,32.60
2022-08-30T12:41:50.601Z,31.80
2022-08-30T12:44:27.884Z,31.00
2022-08-30T12:47:02.509Z,31.70
2022-08-30T12:49:31.861Z,31.70
2022-08-30T12:52:17.420Z,31.20
2022-08-30T12:54:45.382Z,30.80
2022-08-30T12:57:32.423Z,30.40
2022-08-30T13:00:02.410Z,31.10
2022-08-30T13:02:48.240Z,30.60
2022-08-30T13:05:34.473Z,31.00
2022-08-30T13:08:27.493Z,31.20
2022-08-30T13:10:59.677Z,30.90
2022-08-30T13:13:31.910Z,31.10
2022-08-30T13:16:29.390Z,31.20
2022-08-30T13:19:22.571Z,32.30
2022-08-30T13:21:54.537Z,31.10
2022-08-30T13:24:25.203Z,30.80
2022-08-30T13:26:55.548Z,31.00
2022-08-30T13:29:26.333Z,31.10
2022-08-30T13:31:53.729Z,31.20
2022-08-30T13:34:22.561Z,31.50
2022-08-30T13:36:50.802Z,30.90
2022-08-30T13:39:18.130Z,31.10
2022-08-30T13:41:48.957Z,30.80
2022-08-30T13:44:16.265Z,30.90
2022-08-30T13:46:53.981Z,30.80
2022-08-30T13:49:45.463Z,31.20
2022-08-30T13:52:20.833Z,31.40
2022-08-30T13:54:56.575Z,31.60
2022-08-30T14:00:19.123Z,30.60
2022-08-30T14:02:54.153Z,30.20
2022-08-30T14:05:48.162Z,32.30
2022-08-30T14:11:00.397Z,32.90
2022-08-30T14:13:29.302Z,32.90
2022-08-30T14:18:47.258Z,32.30
2022-08-30T14:21:14.209Z,31.70
2022-08-30T14:23:41.742Z,31.30
2022-08-30T14:26:21.004Z,31.20
2022-08-30T14:28:51.460Z,32.20
2022-08-30T14:31:20.175Z,33.20
2022-08-30T14:33:47.744Z,33.10
2022-08-30T14:36:15.848Z,33.20
2022-08-30T14:38:44.918Z,33.70
2022-08-30T14:41:12.171Z,34.30
2022-08-30T14:43:42.796Z,34.40
2022-08-30T14:46:10.880Z,35.00
2022-08-30T14:48:38.876Z,35.50
2022-08-30T14:51:14.114Z,35.80
2022-08-30T14:53:41.087Z,36.00
2022-08-30T14:56:13.843Z,35.90
2022-08-30T14:58:40.674Z,35.70
2022-08-30T15:01:09.765Z,35.50
2022-08-30T15:03:38.705Z,36.10
2022-08-30T15:06:06.230Z,35.70
2022-08-30T15:08:34.330Z,36.10
2022-08-30T15:11:02.171Z,34.80
2022-08-30T15:13:28.980Z,35.00
2022-08-30T15:15:56.942Z,34.60
2022-08-30T15:18:24.534Z,34.60
2022-08-30T15:20:51.653Z,34.50
2022-08-30T15:23:19.437Z,34.90
2022-08-30T15:25:51.680Z,35.70
2022-08-30T15:28:19.472Z,36.40
2022-08-30T15:30:46.999Z,35.90
2022-08-30T15:33:14.758Z,36.70
2022-08-30T15:35:41.851Z,36.30
2022-08-30T15:38:09.089Z,36.70
2022-08-30T15:40:39.407Z,36.80
2022-08-30T15:43:06.686Z,37.40
2022-08-30T15:45:33.668Z,36.90
2022-08-30T15:48:01.377Z,37.10
2022-08-30T15:50:29.346Z,37.00
2022-08-30T15:52:56.787Z,37.50
2022-08-30T15:55:23.749Z,37.50
2022-08-30T15:57:52.035Z,37.80
2022-08-30T16:00:19.570Z,37.50
2022-08-30T16:02:49.246Z,38.20
2022-08-30T16:05:17.792Z,37.70
2022-08-30T16:07:46.800Z,38.40
2022-08-30T16:10:15.991Z,38.30
2022-08-30T16:12:42.858Z,38.10
2022-08-30T16:15:10.380Z,38.20
2022-08-30T16:17:38.313Z,38.30
2022-08-30T16:20:07.412Z,38.20
2022-08-30T16:22:35.429Z,38.30
2022-08-30T16:25:04.775Z,38.30
2022-08-30T16:27:34.309Z,38.70
2022-08-30T16:30:01.751Z,39.00
2022-08-30T16:32:28.731Z,38.70
2022-08-30T16:34:55.701Z,39.10
2022-08-30T16:37:22.637Z,38.70
2022-08-30T16:39:49.626Z,38.70
2022-08-30T16:42:20.808Z,39.10
2022-08-30T16:44:49.769Z,39.40
2022-08-30T16:47:17.262Z,39.10
2022-08-30T16:49:44.291Z,39.20
2022-08-30T16:52:14.500Z,38.60
2022-08-30T16:54:41.521Z,38.50
2022-08-30T16:57:08.413Z,38.10
2022-08-30T16:59:37.228Z,38.20
2022-08-30T17:02:04.182Z,38.10
2022-08-30T17:04:31.449Z,38.10
2022-08-30T17:06:58.773Z,38.50
2022-08-30T17:09:25.721Z,39.70
2022-08-30T17:11:53.057Z,40.50
2022-08-30T17:14:28.021Z,40.70
2022-08-30T17:16:58.439Z,41.10
2022-08-30T17:19:28.601Z,42.50
2022-08-30T17:21:56.817Z,43.10
2022-08-30T17:24:25.091Z,44.50
2022-08-30T17:26:52.513Z,44.40
2022-08-30T17:29:19.890Z,44.90
2022-08-30T17:31:51.406Z,45.70
2022-08-30T17:34:22.005Z,45.50
2022-08-30T17:36:51.299Z,45.60
2022-08-30T17:39:18.349Z,45.40
2022-08-30T17:41:50.016Z,46.80
2022-08-30T17:44:19.327Z,47.00
2022-08-30T17:46:46.711Z,47.10
2022-08-30T17:49:14.082Z,46.50
2022-08-30T17:51:42.976Z,47.00
2022-08-30T17:54:12.975Z,47.40
2022-08-30T17:56:41.181Z,47.60
2022-08-30T17:59:11.848Z,47.10
2022-08-30T18:01:45.849Z,47.40
2022-08-30T18:04:15.221Z,47.20
2022-08-30T18:06:47.269Z,47.30
2022-08-30T18:09:14.291Z,47.40
2022-08-30T18:11:41.451Z,47.20
2022-08-30T18:14:11.430Z,47.90
2022-08-30T18:16:53.380Z,48.40
2022-08-30T18:19:24.384Z,48.70
2022-08-30T18:21:53.036Z,49.00
2022-08-30T18:24:21.422Z,49.60
2022-08-30T18:26:52.100Z,50.20
2022-08-30T18:29:29.312Z,50.60
2022-08-30T18:32:02.870Z,51.10
2022-08-30T18:34:31.792Z,51.10
2022-08-30T18:37:00.363Z,51.60
2022-08-30T18:39:34.512Z,51.90
2022-08-30T18:42:08.834Z,52.60
2022-08-30T18:44:38.679Z,53.10
2022-08-30T18:47:11.106Z,53.20
2022-08-30T18:49:38.339Z,54.10
2022-08-30T18:52:08.345Z,53.60
2022-08-30T18:54:41.720Z,53.90
2022-08-30T18:57:12.070Z,53.50
2022-08-30T18:59:41.921Z,55.30
2022-08-30T19:02:16.378Z,55.30
2022-08-30T19:04:48.018Z,55.70
2022-08-30T19:07:20.772Z,56.80
2022-08-30T19:09:49.246Z,56.20
2022-08-30T19:12:19.024Z,57.00
2022-08-30T19:14:49.974Z,57.10
2022-08-30T19:17:18.239Z,57.80
2022-08-30T19:19:49.282Z,58.10
2022-08-30T19:22:24.028Z,58.40
2022-08-30T19:25:00.464Z,58.80
2022-08-30T19:27:39.844Z,59.20
2022-08-30T19:30:29.670Z,59.50
2022-08-30T19:32:57.793Z,59.70
2022-08-30T19:35:25.956Z,60.60
2022-08-30T19:37:55.927Z,61.30
2022-08-30T19:40:26.313Z,61.80
2022-08-30T19:42:54.445Z,62.10
2022-08-30T19:45:22.951Z,62.20
2022-08-30T19:47:53.468Z,63.10
2022-08-30T19:50:21.961Z,64.00
2022-08-30T19:52:54.170Z,63.80
2022-08-30T19:55:28.424Z,64.00
2022-08-30T19:57:57.955Z,64.30
2022-08-30T20:00:25.219Z,65.00
2022-08-30T20:02:54.776Z,65.20
2022-08-30T20:05:22.226Z,65.00
2022-08-30T20:07:54.243Z,65.40
2022-08-30T20:10:26.176Z,65.50
2022-08-30T20:12:56.390Z,66.30
2022-08-30T20:15:23.718Z,66.30
2022-08-30T20:18:14.224Z,66.50
2022-08-30T20:20:49.637Z,66.50
2022-08-30T20:23:19.729Z,67.00
2022-08-30T20:25:53.003Z,67.10
2022-08-30T20:28:21.099Z,67.30
2022-08-30T20:30:51.812Z,67.50
2022-08-30T20:33:22.200Z,67.60
2022-08-30T20:35:51.647Z,68.00
2022-08-30T20:38:23.780Z,69.00
2022-08-30T20:40:58.604Z,69.50
2022-08-30T20:43:28.115Z,70.30
2022-08-30T20:45:59.099Z,70.40
2022-08-30T20:48:28.857Z,71.00
2022-08-30T20:50:56.477Z,70.40
2022-08-30T20:53:23.566Z,70.90
2022-08-30T20:55:50.491Z,71.40
2022-08-30T20:58:17.491Z,71.30
2022-08-30T21:00:50.102Z,71.30
2022-08-30T21:03:26.092Z,71.80
2022-08-30T21:05:56.324Z,72.00
2022-08-30T21:08:23.316Z,72.50
2022-08-30T21:10:50.635Z,72.50
2022-08-30T21:13:18.312Z,72.90
2022-08-30T21:15:46.235Z,72.70
2022-08-30T21:18:14.483Z,72.80
2022-08-30T21:20:41.902Z,73.40
2022-08-30T21:23:09.392Z,73.30
2022-08-30T21:25:42.181Z,73.60
2022-08-30T21:28:09.151Z,73.70
2022-08-30T21:30:37.230Z,73.90
2022-08-30T21:33:05.880Z,74.20
2022-08-30T21:35:51.281Z,74.20
2022-08-30T21:38:20.106Z,74.30
2022-08-30T21:40:50.294Z,74.50
2022-08-30T21:43:17.568Z,74.80
2022-08-30T21:45:45.552Z,74.80
2022-08-30T21:48:13.753Z,74.90
2022-08-30T21:50:44.488Z,75.00
2022-08-30T21:53:12.066Z,75.80
2022-08-30T21:55:43.688Z,76.00
2022-08-30T21:58:10.895Z,75.70
2022-08-30T22:00:39.227Z,76.20
2022-08-30T22:03:06.120Z,76.40
2022-08-30T22:05:33.168Z,76.70
2022-08-30T22:08:00.046Z,76.50
2022-08-30T22:10:31.145Z,76.50
2022-08-30T22:12:59.931Z,77.30
2022-08-30T22:15:27.006Z,76.80
2022-08-30T22:17:55.341Z,76.80
2022-08-30T22:20:22.186Z,76.90
2022-08-30T22:22:50.923Z,77.40
2022-08-30T22:25:17.926Z,77.10
2022-08-30T22:27:44.780Z,77.20
2022-08-30T22:30:13.364Z,77.30
2022-08-30T22:32:40.948Z,77.20
2022-08-30T22:35:08.243Z,77.30
2022-08-30T22:37:35.261Z,77.30
2022-08-30T22:40:02.316Z,77.30
2022-08-30T22:42:29.433Z,77.30
2022-08-30T22:44:56.481Z,77.50
2022-08-30T22:47:23.414Z,77.40
2022-08-30T22:49:50.285Z,77.40
2022-08-30T22:52:17.136Z,77.60
2022-08-30T22:54:49.554Z,77.60
2022-08-30T22:57:19.398Z,77.90
2022-08-30T22:59:46.344Z,77.80
2022-08-30T23:02:13.296Z,77.80
2022-08-30T23:04:40.241Z,77.70
2022-08-30T23:07:07.084Z,77.60
2022-08-30T23:09:34.022Z,77.70
2022-08-30T23:12:01.374Z,77.50
2022-08-30T23:14:28.310Z,77.60
2022-08-30T23:16:55.897Z,77.60
2022-08-30T23:19:23.689Z,77.50
2022-08-30T23:21:51.040Z,77.60
2022-08-30T23:24:36.359Z,77.60
2022-08-30T23:27:23.114Z,77.70
2022-08-30T23:30:08.687Z,77.40
2022-08-30T23:32:54.653Z,77.40
2022-08-30T23:35:40.716Z,77.60
2022-08-30T23:38:26.081Z,77.50
2022-08-30T23:41:11.813Z,77.80
2022-08-30T23:43:57.222Z,78.00
2022-08-30T23:46:42.588Z,77.90
2022-08-30T23:49:28.272Z,78.00
2022-08-30T23:52:13.953Z,77.90
2022-08-30T23:54:59.405Z,77.80
2022-08-30T23:57:46.022Z,78.00
